sensor_id;sensor_type;location;lat;lon;timestamp;pressure;altitude;pressure_sealevel;temperature;humidity
64739;BME280;51175;51.186;0.276;2023-07-31T00:00:08;100626.22;;;22.94;56.52
64739;BME280;51175;51.186;0.276;2023-07-31T00:00:39;100627.03;;;22.95;56.54
64739;BME280;51175;51.186;0.276;2023-07-31T00:01:09;100630.84;;;22.94;56.61
64739;BME280;51175;51.186;0.276;2023-07-31T00:01:39;100624.66;;;22.93;56.74
64739;BME280;51175;51.186;0.276;2023-07-31T00:02:10;100626.22;;;22.94;56.58
64739;BME280;51175;51.186;0.276;2023-07-31T00:02:41;100626.22;;;22.94;56.85
64739;BME280;51175;51.186;0.276;2023-07-31T00:03:11;100627.03;;;22.95;56.82
64739;BME280;51175;51.186;0.276;2023-07-31T00:03:42;100625.13;;;22.96;56.87
64739;BME280;51175;51.186;0.276;2023-07-31T00:04:12;100624.31;;;22.95;56.77
64739;BME280;51175;51.186;0.276;2023-07-31T00:04:42;100625.47;;;22.94;56.86
64739;BME280;51175;51.186;0.276;2023-07-31T00:05:13;100633.53;;;22.94;56.76
64739;BME280;51175;51.186;0.276;2023-07-31T00:05:43;100625.47;;;22.94;56.63
64739;BME280;51175;51.186;0.276;2023-07-31T00:06:13;100622.78;;;22.94;56.68
64739;BME280;51175;51.186;0.276;2023-07-31T00:06:44;100628.91;;;22.94;56.68
64739;BME280;51175;51.186;0.276;2023-07-31T00:07:14;100619.28;;;22.93;56.83
64739;BME280;51175;51.186;0.276;2023-07-31T00:07:45;100624.66;;;22.93;56.65
64739;BME280;51175;51.186;0.276;2023-07-31T00:08:15;100622.78;;;22.94;56.88
64739;BME280;51175;51.186;0.276;2023-07-31T00:08:46;100617.72;;;22.92;56.96
64739;BME280;51175;51.186;0.276;2023-07-31T00:09:16;100628.50;;;22.92;56.99
64739;BME280;51175;51.186;0.276;2023-07-31T00:09:46;100616.59;;;22.93;56.95
64739;BME280;51175;51.186;0.276;2023-07-31T00:10:17;100625.81;;;22.92;56.98
64739;BME280;51175;51.186;0.276;2023-07-31T00:10:51;100621.53;;;22.91;57.10
64739;BME280;51175;51.186;0.276;2023-07-31T00:11:22;100615.03;;;22.92;57.00
64739;BME280;51175;51.186;0.276;2023-07-31T00:11:52;100618.06;;;22.91;56.89
64739;BME280;51175;51.186;0.276;2023-07-31T00:12:23;100618.84;;;22.91;56.87
64739;BME280;51175;51.186;0.276;2023-07-31T00:12:53;100612.69;;;22.91;57.09
64739;BME280;51175;51.186;0.276;2023-07-31T00:13:24;100613.44;;;22.91;57.19
64739;BME280;51175;51.186;0.276;2023-07-31T00:13:54;100615.38;;;22.91;56.96
64739;BME280;51175;51.186;0.276;2023-07-31T00:14:25;100610.00;;;22.91;57.04
64739;BME280;51175;51.186;0.276;2023-07-31T00:14:55;100614.59;;;22.90;56.85
64739;BME280;51175;51.186;0.276;2023-07-31T00:15:25;100611.88;;;22.90;57.08
64739;BME280;51175;51.186;0.276;2023-07-31T00:15:56;100609.19;;;22.90;56.98
64739;BME280;51175;51.186;0.276;2023-07-31T00:16:26;100613.78;;;22.90;57.14
64739;BME280;51175;51.186;0.276;2023-07-31T00:16:57;100611.88;;;22.90;57.02
64739;BME280;51175;51.186;0.276;2023-07-31T00:17:27;100607.63;;;22.89;57.08
64739;BME280;51175;51.186;0.276;2023-07-31T00:17:58;100610.34;;;22.89;57.05
64739;BME280;51175;51.186;0.276;2023-07-31T00:18:28;100604.94;;;22.89;57.29
64739;BME280;51175;51.186;0.276;2023-07-31T00:18:59;100606.84;;;22.89;56.98
64739;BME280;51175;51.186;0.276;2023-07-31T00:19:29;100612.22;;;22.89;57.19
64739;BME280;51175;51.186;0.276;2023-07-31T00:20:00;100611.88;;;22.90;57.29
64739;BME280;51175;51.186;0.276;2023-07-31T00:20:30;100613.03;;;22.89;57.27
64739;BME280;51175;51.186;0.276;2023-07-31T00:21:00;100604.16;;;22.89;57.33
64739;BME280;51175;51.186;0.276;2023-07-31T00:21:31;100606.06;;;22.88;57.33
64739;BME280;51175;51.186;0.276;2023-07-31T00:22:01;100599.56;;;22.89;57.21
64739;BME280;51175;51.186;0.276;2023-07-31T00:22:32;100602.25;;;22.89;57.21
64739;BME280;51175;51.186;0.276;2023-07-31T00:23:02;100598.78;;;22.89;57.35
64739;BME280;51175;51.186;0.276;2023-07-31T00:23:32;100601.47;;;22.89;57.19
64739;BME280;51175;51.186;0.276;2023-07-31T00:24:03;100599.91;;;22.88;57.41
64739;BME280;51175;51.186;0.276;2023-07-31T00:24:33;100594.94;;;22.90;57.39
64739;BME280;51175;51.186;0.276;2023-07-31T00:25:03;100592.59;;;22.88;57.20
64739;BME280;51175;51.186;0.276;2023-07-31T00:25:36;100599.09;;;22.87;57.38
64739;BME280;51175;51.186;0.276;2023-07-31T00:26:06;100601.47;;;22.89;57.27
64739;BME280;51175;51.186;0.276;2023-07-31T00:26:39;100592.59;;;22.88;57.39
64739;BME280;51175;51.186;0.276;2023-07-31T00:27:09;100596.41;;;22.87;57.40
64739;BME280;51175;51.186;0.276;2023-07-31T00:27:39;100594.53;;;22.88;57.58
64739;BME280;51175;51.186;0.276;2023-07-31T00:28:16;100591.03;;;22.87;57.40
64739;BME280;51175;51.186;0.276;2023-07-31T00:28:47;100599.09;;;22.87;57.45
64739;BME280;51175;51.186;0.276;2023-07-31T00:29:17;100592.94;;;22.87;57.22
64739;BME280;51175;51.186;0.276;2023-07-31T00:29:47;100599.09;;;22.87;57.28
64739;BME280;51175;51.186;0.276;2023-07-31T00:30:18;100591.03;;;22.87;57.29
64739;BME280;51175;51.186;0.276;2023-07-31T00:30:48;100590.25;;;22.87;57.21
64739;BME280;51175;51.186;0.276;2023-07-31T00:31:19;100591.38;;;22.86;57.42
64739;BME280;51175;51.186;0.276;2023-07-31T00:31:49;100589.47;;;22.86;57.40
64739;BME280;51175;51.186;0.276;2023-07-31T00:32:20;100592.16;;;22.86;57.56
64739;BME280;51175;51.186;0.276;2023-07-31T00:32:50;100591.38;;;22.86;57.48
64739;BME280;51175;51.186;0.276;2023-07-31T00:33:21;100586.00;;;22.86;57.41
64739;BME280;51175;51.186;0.276;2023-07-31T00:33:51;100595.97;;;22.85;57.32
64739;BME280;51175;51.186;0.276;2023-07-31T00:34:21;100586.78;;;22.86;57.29
64739;BME280;51175;51.186;0.276;2023-07-31T00:34:52;100590.59;;;22.85;57.53
64739;BME280;51175;51.186;0.276;2023-07-31T00:35:22;100587.88;;;22.85;57.65
64739;BME280;51175;51.186;0.276;2023-07-31T00:35:52;100593.28;;;22.85;57.62
64739;BME280;51175;51.186;0.276;2023-07-31T00:36:23;100583.31;;;22.86;57.49
64739;BME280;51175;51.186;0.276;2023-07-31T00:36:53;100585.19;;;22.85;57.45
64739;BME280;51175;51.186;0.276;2023-07-31T00:37:24;100587.13;;;22.85;57.45
64739;BME280;51175;51.186;0.276;2023-07-31T00:37:55;100585.19;;;22.85;57.49
64739;BME280;51175;51.186;0.276;2023-07-31T00:38:26;100577.13;;;22.85;57.61
64739;BME280;51175;51.186;0.276;2023-07-31T00:38:56;100587.88;;;22.85;57.67
64739;BME280;51175;51.186;0.276;2023-07-31T00:39:30;100583.63;;;22.84;57.48
64739;BME280;51175;51.186;0.276;2023-07-31T00:40:00;100583.63;;;22.84;57.49
64739;BME280;51175;51.186;0.276;2023-07-31T00:40:35;100580.16;;;22.84;57.42
64739;BME280;51175;51.186;0.276;2023-07-31T00:41:06;100582.84;;;22.84;57.58
64739;BME280;51175;51.186;0.276;2023-07-31T00:41:39;100576.69;;;22.83;57.31
64739;BME280;51175;51.186;0.276;2023-07-31T00:42:09;100582.84;;;22.84;57.50
64739;BME280;51175;51.186;0.276;2023-07-31T00:42:40;100577.81;;;22.82;57.44
64739;BME280;51175;51.186;0.276;2023-07-31T00:43:10;100579.38;;;22.83;57.61
64739;BME280;51175;51.186;0.276;2023-07-31T00:43:40;100572.41;;;22.82;57.69
64739;BME280;51175;51.186;0.276;2023-07-31T00:44:11;100578.59;;;22.82;57.54
64739;BME280;51175;51.186;0.276;2023-07-31T00:44:41;100581.28;;;22.82;57.57
64739;BME280;51175;51.186;0.276;2023-07-31T00:45:12;100575.09;;;22.82;57.62
64739;BME280;51175;51.186;0.276;2023-07-31T00:45:42;100574.34;;;22.81;57.75
64739;BME280;51175;51.186;0.276;2023-07-31T00:46:12;100568.97;;;22.81;57.68
64739;BME280;51175;51.186;0.276;2023-07-31T00:46:44;100577.03;;;22.81;57.61
64739;BME280;51175;51.186;0.276;2023-07-31T00:47:14;100569.72;;;22.82;57.51
64739;BME280;51175;51.186;0.276;2023-07-31T00:47:44;100574.34;;;22.81;57.61
64739;BME280;51175;51.186;0.276;2023-07-31T00:48:15;100565.47;;;22.81;57.86
64739;BME280;51175;51.186;0.276;2023-07-31T00:48:45;100572.75;;;22.80;57.73
64739;BME280;51175;51.186;0.276;2023-07-31T00:49:16;100572.00;;;22.80;57.52
64739;BME280;51175;51.186;0.276;2023-07-31T00:49:46;100561.22;;;22.80;57.55
64739;BME280;51175;51.186;0.276;2023-07-31T00:50:18;100574.69;;;22.80;57.58
64739;BME280;51175;51.186;0.276;2023-07-31T00:50:51;100563.91;;;22.80;57.88
64739;BME280;51175;51.186;0.276;2023-07-31T00:51:22;100556.94;;;22.79;57.60
64739;BME280;51175;51.186;0.276;2023-07-31T00:51:53;100577.38;;;22.80;57.62
64739;BME280;51175;51.186;0.276;2023-07-31T00:52:24;100565.81;;;22.79;57.63
64739;BME280;51175;51.186;0.276;2023-07-31T00:52:54;100564.25;;;22.78;57.89
64739;BME280;51175;51.186;0.276;2023-07-31T00:53:25;100560.44;;;22.79;57.84
64739;BME280;51175;51.186;0.276;2023-07-31T00:53:55;100565.81;;;22.79;57.64
64739;BME280;51175;51.186;0.276;2023-07-31T00:54:26;100559.63;;;22.79;57.56
64739;BME280;51175;51.186;0.276;2023-07-31T00:54:59;100564.25;;;22.78;57.63
64739;BME280;51175;51.186;0.276;2023-07-31T00:55:30;100562.34;;;22.79;57.83
64739;BME280;51175;51.186;0.276;2023-07-31T00:56:01;100562.34;;;22.79;57.89
64739;BME280;51175;51.186;0.276;2023-07-31T00:56:33;100559.63;;;22.79;57.90
64739;BME280;51175;51.186;0.276;2023-07-31T00:57:06;100565.81;;;22.79;57.79
64739;BME280;51175;51.186;0.276;2023-07-31T00:57:39;100559.31;;;22.80;57.92
64739;BME280;51175;51.186;0.276;2023-07-31T00:58:11;100563.13;;;22.79;57.94
64739;BME280;51175;51.186;0.276;2023-07-31T00:58:41;100562.34;;;22.79;57.89
64739;BME280;51175;51.186;0.276;2023-07-31T00:59:15;100563.91;;;22.80;57.82
64739;BME280;51175;51.186;0.276;2023-07-31T00:59:45;100564.69;;;22.80;57.71
64739;BME280;51175;51.186;0.276;2023-07-31T01:00:17;100558.53;;;22.80;57.76
64739;BME280;51175;51.186;0.276;2023-07-31T01:00:47;100561.22;;;22.80;57.91
64739;BME280;51175;51.186;0.276;2023-07-31T01:01:17;100565.81;;;22.79;57.92
64739;BME280;51175;51.186;0.276;2023-07-31T01:01:48;100558.88;;;22.78;57.91
64739;BME280;51175;51.186;0.276;2023-07-31T01:02:19;100556.94;;;22.79;58.02
64739;BME280;51175;51.186;0.276;2023-07-31T01:02:50;100556.94;;;22.79;57.93
64739;BME280;51175;51.186;0.276;2023-07-31T01:03:21;100550.00;;;22.78;58.02
64739;BME280;51175;51.186;0.276;2023-07-31T01:03:52;100551.56;;;22.79;58.00
64739;BME280;51175;51.186;0.276;2023-07-31T01:04:26;100552.69;;;22.78;57.95
64739;BME280;51175;51.186;0.276;2023-07-31T01:04:57;100547.31;;;22.78;57.97
64739;BME280;51175;51.186;0.276;2023-07-31T01:05:44;100548.09;;;22.78;57.71
64739;BME280;51175;51.186;0.276;2023-07-31T01:08:04;100548.44;;;22.77;58.02
64739;BME280;51175;51.186;0.276;2023-07-31T01:09:11;100547.22;;;22.74;57.88
64739;BME280;51175;51.186;0.276;2023-07-31T01:10:11;100552.59;;;22.74;58.04
64739;BME280;51175;51.186;0.276;2023-07-31T01:10:51;100546.78;;;22.72;58.37
64739;BME280;51175;51.186;0.276;2023-07-31T01:11:29;100543.31;;;22.72;57.92
64739;BME280;51175;51.186;0.276;2023-07-31T01:12:02;100539.81;;;22.71;58.19
64739;BME280;51175;51.186;0.276;2023-07-31T01:12:38;100542.50;;;22.71;58.33
64739;BME280;51175;51.186;0.276;2023-07-31T01:13:09;100541.41;;;22.72;58.26
64739;BME280;51175;51.186;0.276;2023-07-31T01:13:40;100537.13;;;22.71;58.26
64739;BME280;51175;51.186;0.276;2023-07-31T01:14:10;100540.59;;;22.72;58.23
64739;BME280;51175;51.186;0.276;2023-07-31T01:14:40;100535.22;;;22.72;58.14
64739;BME280;51175;51.186;0.276;2023-07-31T01:15:11;100532.53;;;22.72;58.33
64739;BME280;51175;51.186;0.276;2023-07-31T01:15:41;100545.19;;;22.71;58.25
64739;BME280;51175;51.186;0.276;2023-07-31T01:16:12;100532.53;;;22.72;58.26
64739;BME280;51175;51.186;0.276;2023-07-31T01:16:42;100529.84;;;22.72;58.10
64739;BME280;51175;51.186;0.276;2023-07-31T01:17:13;100530.63;;;22.72;58.39
64739;BME280;51175;51.186;0.276;2023-07-31T01:17:44;100527.94;;;22.72;58.23
64739;BME280;51175;51.186;0.276;2023-07-31T01:18:14;100529.06;;;22.71;58.20
64739;BME280;51175;51.186;0.276;2023-07-31T01:18:45;100519.88;;;22.72;58.16
64739;BME280;51175;51.186;0.276;2023-07-31T01:19:18;100525.25;;;22.72;58.24
64739;BME280;51175;51.186;0.276;2023-07-31T01:19:53;100530.63;;;22.72;58.24
64739;BME280;51175;51.186;0.276;2023-07-31T01:20:24;100524.47;;;22.72;58.18
64739;BME280;51175;51.186;0.276;2023-07-31T01:22:21;100519.41;;;22.70;58.22
64739;BME280;51175;51.186;0.276;2023-07-31T01:25:56;100516.63;;;22.66;58.32
64739;BME280;51175;51.186;0.276;2023-07-31T01:26:33;100510.44;;;22.66;58.14
64739;BME280;51175;51.186;0.276;2023-07-31T01:27:14;100515.06;;;22.65;58.16
64739;BME280;51175;51.186;0.276;2023-07-31T01:27:52;100502.72;;;22.64;58.36
64739;BME280;51175;51.186;0.276;2023-07-31T01:28:28;100508.88;;;22.65;58.44
64739;BME280;51175;51.186;0.276;2023-07-31T01:30:25;100499.25;;;22.64;58.41
64739;BME280;51175;51.186;0.276;2023-07-31T01:30:59;100500.03;;;22.64;58.46
64739;BME280;51175;51.186;0.276;2023-07-31T01:31:31;100497.31;;;22.64;58.31
64739;BME280;51175;51.186;0.276;2023-07-31T01:32:03;100496.56;;;22.64;58.67
64739;BME280;51175;51.186;0.276;2023-07-31T01:32:35;100488.50;;;22.64;58.32
64739;BME280;51175;51.186;0.276;2023-07-31T01:33:09;100492.72;;;22.65;58.44
64739;BME280;51175;51.186;0.276;2023-07-31T01:33:42;100491.19;;;22.64;58.54
64739;BME280;51175;51.186;0.276;2023-07-31T01:34:13;100496.22;;;22.65;58.36
64739;BME280;51175;51.186;0.276;2023-07-31T01:34:46;100489.25;;;22.64;58.26
64739;BME280;51175;51.186;0.276;2023-07-31T01:35:17;100491.94;;;22.64;58.41
64739;BME280;51175;51.186;0.276;2023-07-31T01:35:48;100487.69;;;22.63;58.41
64739;BME280;51175;51.186;0.276;2023-07-31T01:36:19;100485.78;;;22.64;58.76
64739;BME280;51175;51.186;0.276;2023-07-31T01:36:50;100490.38;;;22.63;58.52
64739;BME280;51175;51.186;0.276;2023-07-31T01:37:20;100480.41;;;22.64;58.51
64739;BME280;51175;51.186;0.276;2023-07-31T01:37:52;100478.50;;;22.64;58.48
64739;BME280;51175;51.186;0.276;2023-07-31T01:38:24;100475.03;;;22.64;58.44
64739;BME280;51175;51.186;0.276;2023-07-31T01:39:02;100481.53;;;22.63;58.36
64739;BME280;51175;51.186;0.276;2023-07-31T01:39:33;100472.34;;;22.64;58.51
64739;BME280;51175;51.186;0.276;2023-07-31T01:40:05;100472.34;;;22.64;58.53
64739;BME280;51175;51.186;0.276;2023-07-31T01:40:41;100480.41;;;22.64;58.36
64739;BME280;51175;51.186;0.276;2023-07-31T01:41:11;100473.44;;;22.63;58.53
64739;BME280;51175;51.186;0.276;2023-07-31T01:41:42;100473.44;;;22.63;58.56
64739;BME280;51175;51.186;0.276;2023-07-31T01:42:12;100476.94;;;22.63;58.49
64739;BME280;51175;51.186;0.276;2023-07-31T01:42:42;100479.63;;;22.63;58.50
64739;BME280;51175;51.186;0.276;2023-07-31T01:43:13;100468.06;;;22.63;58.52
64739;BME280;51175;51.186;0.276;2023-07-31T01:43:45;100476.13;;;22.63;58.51
64739;BME280;51175;51.186;0.276;2023-07-31T01:44:15;100473.09;;;22.64;58.60
64739;BME280;51175;51.186;0.276;2023-07-31T01:44:45;100466.97;;;22.64;58.53
64739;BME280;51175;51.186;0.276;2023-07-31T01:45:16;100466.97;;;22.64;58.63
64739;BME280;51175;51.186;0.276;2023-07-31T01:45:47;100468.84;;;22.63;58.56
64739;BME280;51175;51.186;0.276;2023-07-31T01:46:17;100456.19;;;22.64;58.56
64739;BME280;51175;51.186;0.276;2023-07-31T01:46:47;100460.78;;;22.63;58.68
64739;BME280;51175;51.186;0.276;2023-07-31T01:47:18;100463.13;;;22.65;58.62
64739;BME280;51175;51.186;0.276;2023-07-31T01:47:51;100458.88;;;22.64;58.85
64739;BME280;51175;51.186;0.276;2023-07-31T01:48:21;100448.88;;;22.64;58.50
64739;BME280;51175;51.186;0.276;2023-07-31T01:48:54;100458.88;;;22.64;58.54
64739;BME280;51175;51.186;0.276;2023-07-31T01:49:25;100452.72;;;22.63;58.47
64739;BME280;51175;51.186;0.276;2023-07-31T01:49:55;100458.09;;;22.63;58.62
64739;BME280;51175;51.186;0.276;2023-07-31T01:50:25;100450.81;;;22.64;58.51
64739;BME280;51175;51.186;0.276;2023-07-31T01:51:00;100446.53;;;22.63;58.32
64739;BME280;51175;51.186;0.276;2023-07-31T01:51:30;100456.19;;;22.64;58.46
64739;BME280;51175;51.186;0.276;2023-07-31T01:52:04;100454.25;;;22.64;58.44
64739;BME280;51175;51.186;0.276;2023-07-31T01:52:35;100454.25;;;22.64;58.64
64739;BME280;51175;51.186;0.276;2023-07-31T01:53:14;100453.50;;;22.64;58.38
64739;BME280;51175;51.186;0.276;2023-07-31T01:53:45;100449.22;;;22.63;58.61
64739;BME280;51175;51.186;0.276;2023-07-31T01:54:15;100450.00;;;22.63;58.74
64739;BME280;51175;51.186;0.276;2023-07-31T01:54:45;100446.53;;;22.63;58.46
64739;BME280;51175;51.186;0.276;2023-07-31T01:55:16;100450.81;;;22.64;58.60
64739;BME280;51175;51.186;0.276;2023-07-31T01:55:46;100441.16;;;22.63;58.51
64739;BME280;51175;51.186;0.276;2023-07-31T01:56:16;100446.53;;;22.63;58.55
64739;BME280;51175;51.186;0.276;2023-07-31T01:56:47;100442.72;;;22.64;58.64
64739;BME280;51175;51.186;0.276;2023-07-31T01:57:17;100433.88;;;22.63;58.60
64739;BME280;51175;51.186;0.276;2023-07-31T01:57:47;100439.25;;;22.63;58.46
64739;BME280;51175;51.186;0.276;2023-07-31T01:58:18;100435.78;;;22.63;58.51
64739;BME280;51175;51.186;0.276;2023-07-31T01:58:49;100448.13;;;22.64;58.47
64739;BME280;51175;51.186;0.276;2023-07-31T01:59:19;100435.78;;;22.63;58.54
64739;BME280;51175;51.186;0.276;2023-07-31T01:59:49;100437.34;;;22.64;58.94
64739;BME280;51175;51.186;0.276;2023-07-31T02:00:20;100436.22;;;22.65;58.61
64739;BME280;51175;51.186;0.276;2023-07-31T02:00:50;100436.22;;;22.65;58.77
64739;BME280;51175;51.186;0.276;2023-07-31T02:01:21;100444.28;;;22.65;58.54
64739;BME280;51175;51.186;0.276;2023-07-31T02:01:51;100438.13;;;22.64;58.42
64739;BME280;51175;51.186;0.276;2023-07-31T02:02:22;100445.09;;;22.65;58.34
64739;BME280;51175;51.186;0.276;2023-07-31T02:02:53;100444.28;;;22.65;58.60
64739;BME280;51175;51.186;0.276;2023-07-31T02:03:23;100441.94;;;22.63;58.51
64739;BME280;51175;51.186;0.276;2023-07-31T02:03:54;100434.66;;;22.64;58.43
64739;BME280;51175;51.186;0.276;2023-07-31T02:04:24;100431.97;;;22.64;58.46
64739;BME280;51175;51.186;0.276;2023-07-31T02:04:54;100441.94;;;22.63;58.59
64739;BME280;51175;51.186;0.276;2023-07-31T02:05:25;100433.88;;;22.63;58.36
64739;BME280;51175;51.186;0.276;2023-07-31T02:05:55;100438.13;;;22.64;58.40
64739;BME280;51175;51.186;0.276;2023-07-31T02:06:26;100438.13;;;22.64;58.57
64739;BME280;51175;51.186;0.276;2023-07-31T02:06:57;100427.69;;;22.63;58.27
64739;BME280;51175;51.186;0.276;2023-07-31T02:07:27;100440.03;;;22.64;58.54
64739;BME280;51175;51.186;0.276;2023-07-31T02:07:57;100425.78;;;22.63;58.37
64739;BME280;51175;51.186;0.276;2023-07-31T02:08:28;100420.41;;;22.63;58.51
64739;BME280;51175;51.186;0.276;2023-07-31T02:08:58;100422.31;;;22.63;58.55
64739;BME280;51175;51.186;0.276;2023-07-31T02:09:29;100419.63;;;22.63;58.52
64739;BME280;51175;51.186;0.276;2023-07-31T02:09:59;100410.78;;;22.62;58.56
64739;BME280;51175;51.186;0.276;2023-07-31T02:10:29;100422.31;;;22.63;58.39
64739;BME280;51175;51.186;0.276;2023-07-31T02:11:00;100425.78;;;22.63;58.50
64739;BME280;51175;51.186;0.276;2023-07-31T02:11:30;100414.25;;;22.63;58.42
64739;BME280;51175;51.186;0.276;2023-07-31T02:12:00;100412.69;;;22.62;58.65
64739;BME280;51175;51.186;0.276;2023-07-31T02:12:31;100413.47;;;22.62;58.53
64739;BME280;51175;51.186;0.276;2023-07-31T02:13:02;100416.16;;;22.62;58.54
64739;BME280;51175;51.186;0.276;2023-07-31T02:13:33;100408.09;;;22.62;58.72
64739;BME280;51175;51.186;0.276;2023-07-31T02:14:04;100413.47;;;22.62;58.73
64739;BME280;51175;51.186;0.276;2023-07-31T02:14:34;100416.16;;;22.62;58.61
64739;BME280;51175;51.186;0.276;2023-07-31T02:15:05;100418.84;;;22.62;58.56
64739;BME280;51175;51.186;0.276;2023-07-31T02:15:36;100410.78;;;22.62;58.70
64739;BME280;51175;51.186;0.276;2023-07-31T02:16:06;100411.88;;;22.61;58.56
64739;BME280;51175;51.186;0.276;2023-07-31T02:16:37;100406.50;;;22.61;58.42
64739;BME280;51175;51.186;0.276;2023-07-31T02:17:07;100411.88;;;22.61;58.50
64739;BME280;51175;51.186;0.276;2023-07-31T02:17:38;100406.50;;;22.61;58.49
64739;BME280;51175;51.186;0.276;2023-07-31T02:18:08;100408.44;;;22.61;58.71
64739;BME280;51175;51.186;0.276;2023-07-31T02:18:38;100417.28;;;22.61;58.59
64739;BME280;51175;51.186;0.276;2023-07-31T02:19:09;100411.88;;;22.61;58.55
64739;BME280;51175;51.186;0.276;2023-07-31T02:19:39;100407.31;;;22.62;58.78
64739;BME280;51175;51.186;0.276;2023-07-31T02:20:10;100404.97;;;22.60;58.67
64739;BME280;51175;51.186;0.276;2023-07-31T02:20:40;100410.00;;;22.62;58.39
64739;BME280;51175;51.186;0.276;2023-07-31T02:21:10;100409.19;;;22.61;58.57
64739;BME280;51175;51.186;0.276;2023-07-31T02:21:41;100403.06;;;22.61;58.62
64739;BME280;51175;51.186;0.276;2023-07-31T02:22:11;100401.47;;;22.60;58.71
64739;BME280;51175;51.186;0.276;2023-07-31T02:22:41;100404.97;;;22.60;58.63
64739;BME280;51175;51.186;0.276;2023-07-31T02:23:12;100403.06;;;22.61;58.40
64739;BME280;51175;51.186;0.276;2023-07-31T02:23:42;100401.13;;;22.61;58.65
64739;BME280;51175;51.186;0.276;2023-07-31T02:24:12;100402.25;;;22.60;58.72
64739;BME280;51175;51.186;0.276;2023-07-31T02:24:43;100403.06;;;22.61;58.75
64739;BME280;51175;51.186;0.276;2023-07-31T02:25:13;100402.25;;;22.60;58.53
64739;BME280;51175;51.186;0.276;2023-07-31T02:25:44;100398.03;;;22.59;58.62
64739;BME280;51175;51.186;0.276;2023-07-31T02:26:15;100404.97;;;22.60;58.62
64739;BME280;51175;51.186;0.276;2023-07-31T02:26:45;100399.56;;;22.60;58.72
64739;BME280;51175;51.186;0.276;2023-07-31T02:27:15;100405.28;;;22.58;58.78
64739;BME280;51175;51.186;0.276;2023-07-31T02:27:45;100404.97;;;22.60;58.84
64739;BME280;51175;51.186;0.276;2023-07-31T02:28:16;100408.78;;;22.59;58.87
64739;BME280;51175;51.186;0.276;2023-07-31T02:28:47;100397.19;;;22.58;58.61
64739;BME280;51175;51.186;0.276;2023-07-31T02:29:17;100395.63;;;22.57;58.88
64739;BME280;51175;51.186;0.276;2023-07-31T02:29:47;100402.56;;;22.58;58.81
64739;BME280;51175;51.186;0.276;2023-07-31T02:30:18;100401.03;;;22.57;58.77
64739;BME280;51175;51.186;0.276;2023-07-31T02:30:50;100401.78;;;22.58;58.51
64739;BME280;51175;51.186;0.276;2023-07-31T02:31:21;100393.72;;;22.58;58.56
64739;BME280;51175;51.186;0.276;2023-07-31T02:31:52;100401.03;;;22.57;58.91
64739;BME280;51175;51.186;0.276;2023-07-31T02:32:22;100392.16;;;22.57;58.74
64739;BME280;51175;51.186;0.276;2023-07-31T02:32:53;100392.94;;;22.57;58.68
64739;BME280;51175;51.186;0.276;2023-07-31T02:33:24;100392.94;;;22.57;58.76
64739;BME280;51175;51.186;0.276;2023-07-31T02:33:54;100392.94;;;22.57;58.76
64739;BME280;51175;51.186;0.276;2023-07-31T02:34:24;100399.88;;;22.58;58.50
64739;BME280;51175;51.186;0.276;2023-07-31T02:34:55;100392.94;;;22.57;58.68
64739;BME280;51175;51.186;0.276;2023-07-31T02:35:25;100386.78;;;22.57;58.60
64739;BME280;51175;51.186;0.276;2023-07-31T02:35:55;100392.94;;;22.57;58.66
64739;BME280;51175;51.186;0.276;2023-07-31T02:36:26;100387.56;;;22.57;58.54
64739;BME280;51175;51.186;0.276;2023-07-31T02:36:56;100389.47;;;22.57;58.69
64739;BME280;51175;51.186;0.276;2023-07-31T02:37:27;100388.69;;;22.56;58.57
64739;BME280;51175;51.186;0.276;2023-07-31T02:37:59;100389.47;;;22.57;58.82
64739;BME280;51175;51.186;0.276;2023-07-31T02:38:29;100385.97;;;22.56;58.88
64739;BME280;51175;51.186;0.276;2023-07-31T02:38:59;100387.91;;;22.56;58.75
64739;BME280;51175;51.186;0.276;2023-07-31T02:39:29;100391.38;;;22.56;58.60
64739;BME280;51175;51.186;0.276;2023-07-31T02:40:00;100394.84;;;22.57;58.87
64739;BME280;51175;51.186;0.276;2023-07-31T02:40:30;100390.59;;;22.56;58.79
64739;BME280;51175;51.186;0.276;2023-07-31T02:41:01;100383.28;;;22.56;58.79
64739;BME280;51175;51.186;0.276;2023-07-31T02:41:31;100393.28;;;22.56;58.63
64739;BME280;51175;51.186;0.276;2023-07-31T02:42:02;100385.22;;;22.56;58.87
64739;BME280;51175;51.186;0.276;2023-07-31T02:42:32;100382.53;;;22.56;58.69
64739;BME280;51175;51.186;0.276;2023-07-31T02:43:02;100390.59;;;22.56;58.89
64739;BME280;51175;51.186;0.276;2023-07-31T02:43:33;100385.22;;;22.56;58.71
64739;BME280;51175;51.186;0.276;2023-07-31T02:44:03;100377.16;;;22.56;58.84
64739;BME280;51175;51.186;0.276;2023-07-31T02:44:33;100382.88;;;22.54;58.81
64739;BME280;51175;51.186;0.276;2023-07-31T02:45:04;100385.56;;;22.54;58.80
64739;BME280;51175;51.186;0.276;2023-07-31T02:45:35;100385.56;;;22.54;58.72
64739;BME280;51175;51.186;0.276;2023-07-31T02:46:05;100388.25;;;22.54;58.60
64739;BME280;51175;51.186;0.276;2023-07-31T02:46:35;100380.19;;;22.54;58.77
64739;BME280;51175;51.186;0.276;2023-07-31T02:47:06;100382.88;;;22.54;58.87
64739;BME280;51175;51.186;0.276;2023-07-31T02:47:36;100383.63;;;22.55;58.91
64739;BME280;51175;51.186;0.276;2023-07-31T02:48:07;100385.56;;;22.54;58.80
64739;BME280;51175;51.186;0.276;2023-07-31T02:48:37;100383.97;;;22.53;59.04
64739;BME280;51175;51.186;0.276;2023-07-31T02:49:07;100377.50;;;22.54;58.82
64739;BME280;51175;51.186;0.276;2023-07-31T02:49:38;100379.38;;;22.54;59.06
64739;BME280;51175;51.186;0.276;2023-07-31T02:50:08;100374.00;;;22.54;58.96
64739;BME280;51175;51.186;0.276;2023-07-31T02:50:39;100371.66;;;22.52;58.70
64739;BME280;51175;51.186;0.276;2023-07-31T02:51:09;100378.59;;;22.53;59.10